Lady Washington — WAA2820 — position and weather

sailwx.info

Track history (hours):
 
Tides and Currents Weather Stations Pressure Air Temp Water Temp Dewpoint Dewpoint Depression Visibility Wind Speed Wind Dir Waves Ship Positions

Lady Washington (United States)

Ship's website: http://www.historicalseaport.org/LadyWashington.htm

Owner: GRAYS HARBOR HISTORICAL SEAPORT AUTHORIT, ABERDEEN, WA. More information available from US FCC via Universal Licensing System and Coast Guard Vessel Documentation Center.

Last reported at 2017-Apr-25 16:39 UTC. Time now 2017-Apr-26 15:42 UTC.
Position N 38°25' W 123°28'.

Length 37 m.

Type: Sailing vessel. MMSI: 366945360.

Date/timePositionNaut miles runAvg speedWind from/ knotsBaromVisibWave heightAir tempDewpointWater temp
2017-Apr-25 16:39N 38°25' W 123°28'1 5.6
2017-Apr-25 16:30N 38°24' W 123°27'3 5.6
2017-Apr-25 15:58N 38°22' W 123°26'2 5.2
2017-Apr-25 15:30N 38°20' W 123°24'3 5.1
2017-Apr-25 15:00N 38°18' W 123°21'5 5.1
2017-Apr-25 13:59N 38°14' W 123°18'2 5.0
2017-Apr-25 13:30N 38°12' W 123°16'3 5.0
2017-Apr-25 13:00N 38°10' W 123°15'3 4.7
2017-Apr-25 12:16N 38°07' W 123°12'1 4.3
2017-Apr-25 12:00N 38°06' W 123°12'9 4.2
2017-Apr-25 09:57N 37°58' W 123°07'3 5.0
2017-Apr-25 09:25N 37°57' W 123°04'4 5.1
2017-Apr-25 08:32N 37°56' W 122°59'0 4.8
2017-Apr-25 08:30N 37°56' W 122°58'24 3.9
2017-Apr-25 02:26N 37°49' W 122°30'2 5.6
2017-Apr-25 02:00N 37°49' W 122°27'3 6.3
2017-Apr-25 01:29N 37°48' W 122°23'3 5.8
2017-Apr-25 01:00N 37°48' W 122°20'2 0.9
2017-Apr-24 22:18N 37°48' W 122°17'0 0.0
2017-Apr-24 22:00N 37°48' W 122°17'0 0.0
2017-Apr-24 21:24N 37°48' W 122°17'0 0.0
2017-Apr-24 20:54N 37°48' W 122°17'0 0.0
2017-Apr-24 02:48N 37°48' W 122°17'0 0.0
2017-Apr-24 02:30N 37°48' W 122°17'0 0.0
2017-Apr-24 01:24N 37°48' W 122°17'0 0.0
2017-Apr-24 00:48N 37°48' W 122°17'0 0.0
2017-Apr-24 00:30N 37°48' W 122°17'0 0.1
2017-Apr-23 23:44N 37°48' W 122°17'0 1.8
2017-Apr-23 23:29N 37°47' W 122°16'1 1.3
2017-Apr-23 23:00N 37°48' W 122°17'4 7.9
2017-Apr-23 22:30N 37°48' W 122°22'3 5.4
2017-Apr-23 21:59N 37°49' W 122°25'2 3.9
2017-Apr-23 21:29N 37°48' W 122°23'3 6.0
2017-Apr-23 21:00N 37°48' W 122°19'2 2.5
2017-Apr-23 20:10N 37°48' W 122°17'0 0.0
2017-Apr-23 19:52N 37°48' W 122°17'1 3.9
2017-Apr-23 19:30N 37°48' W 122°19'4 7.2
2017-Apr-23 18:58N 37°49' W 122°23'3 6.7
2017-Apr-23 18:29N 37°50' W 122°27'1 2.7
2017-Apr-23 18:00N 37°51' W 122°28'1 2.5
2017-Apr-23 17:30N 37°51' W 122°27'3 6.6
2017-Apr-23 17:00N 37°49' W 122°23'3 6.5
2017-Apr-23 16:30N 37°48' W 122°19'2 0.1
2017-Apr-23 00:20N 37°48' W 122°17'0 0.4
2017-Apr-22 23:54N 37°48' W 122°17'2 4.0
2017-Apr-22 23:30N 37°48' W 122°19'1 2.5
2017-Apr-22 23:00N 37°47' W 122°20'0 0.5
2017-Apr-22 22:30N 37°48' W 122°21'0 0.6
2017-Apr-22 21:59N 37°48' W 122°21'1 3.0
2017-Apr-22 21:30N 37°48' W 122°19'2 0.4
2017-Apr-22 17:19N 37°48' W 122°17'0 0.0
2017-Apr-22 16:04N 37°48' W 122°17'0 0.0
2017-Apr-21 23:59N 37°48' W 122°17'3 5.6
2017-Apr-21 23:30N 37°48' W 122°20'3 5.0
2017-Apr-21 22:59N 37°47' W 122°23'0 0.6
2017-Apr-21 22:29N 37°47' W 122°23'1 1.5
2017-Apr-21 21:51N 37°47' W 122°22'0 1.3
2017-Apr-21 21:30N 37°48' W 122°21'1 1.9
2017-Apr-21 20:56N 37°47' W 122°22'1 2.0
2017-Apr-21 20:30N 37°47' W 122°21'1 1.1
2017-Apr-21 20:00N 37°47' W 122°22'1 0.9
2017-Apr-21 18:56N 37°47' W 122°23'1 2.2
2017-Apr-21 18:30N 37°48' W 122°22'1 1.0
2017-Apr-21 17:52N 37°47' W 122°21'0 0.9
2017-Apr-21 17:30N 37°47' W 122°21'0 0.1
2017-Apr-21 17:00N 37°47' W 122°21'2 1.3
2017-Apr-21 15:44N 37°47' W 122°23'0 1.1
2017-Apr-21 15:30N 37°47' W 122°23'2 3.9
2017-Apr-21 15:00N 37°48' W 122°21'3 1.6
2017-Apr-21 12:55N 37°48' W 122°17'0 0.0
2017-Apr-21 10:22N 37°48' W 122°17'0 0.0
2017-Apr-20 22:21N 37°48' W 122°17'0 0.4
2017-Apr-20 21:59N 37°48' W 122°17'1 2.9
2017-Apr-20 21:30N 37°48' W 122°19'2 3.2
2017-Apr-20 21:00N 37°47' W 122°21'0 0.6
2017-Apr-20 20:24N 37°48' W 122°21'1 2.3
2017-Apr-20 19:59N 37°48' W 122°20'2 2.8
2017-Apr-20 19:05N 37°48' W 122°17'0 1.4
2017-Apr-20 19:00N 37°48' W 122°17'0 0.1
2017-Apr-20 17:57N 37°48' W 122°17'0 0.0
2017-Apr-20 17:27N 37°48' W 122°17'0 0.2
2017-Apr-20 17:00N 37°47' W 122°17'0 0.0
2017-Apr-19 14:52N 37°48' W 122°17'0 0.0
2017-Apr-19 14:27N 37°48' W 122°17'0 0.0
2017-Apr-19 13:21N 37°48' W 122°17'0 0.0
2017-Apr-18 19:24N 37°48' W 122°17'0 0.0
2017-Apr-18 19:00N 37°48' W 122°17'0 0.0
2017-Apr-18 11:00N 37°48' W 122°17'0 0.0
2017-Apr-18 05:24N 37°48' W 122°17'0 0.0
2017-Apr-18 04:54N 37°48' W 122°17'0 0.0
2017-Apr-18 04:24N 37°48' W 122°17'0 0.0
2017-Apr-18 03:18N 37°48' W 122°17'0 0.0
2017-Apr-18 03:00N 37°48' W 122°17'0 0.0
2017-Apr-18 02:18N 37°48' W 122°17'0 0.0
2017-Apr-18 02:00N 37°48' W 122°17'0 0.0
2017-Apr-17 06:11N 37°48' W 122°17'0 0.0
2017-Apr-17 05:59N 37°48' W 122°17'0 0.0
2017-Apr-17 05:29N 37°48' W 122°17'0 0.0
2017-Apr-17 04:53N 37°48' W 122°17'0 0.0
2017-Apr-17 03:53N 37°48' W 122°17'0 0.0
2017-Apr-17 03:20N 37°48' W 122°17'0 0.0
2017-Apr-17 02:59N 37°48' W 122°17'0 0.0
2017-Apr-17 02:29N 37°48' W 122°17'0 0.0
2017-Apr-17 01:53N 37°48' W 122°17'0 0.0
2017-Apr-17 01:29N 37°48' W 122°17'0 0.0
2017-Apr-17 00:59N 37°48' W 122°17'0 0.0
2017-Apr-17 00:23N 37°48' W 122°17'0 0.0
2017-Apr-16 23:59N 37°48' W 122°17'1 1.4
2017-Apr-16 23:30N 37°48' W 122°18'3 5.2
2017-Apr-16 23:00N 37°48' W 122°21'0 0.4
2017-Apr-16 22:30N 37°47' W 122°21'1 1.5
2017-Apr-16 22:00N 37°47' W 122°21'2 3.8
2017-Apr-16 21:30N 37°48' W 122°20'2 1.1
2017-Apr-16 19:52N 37°48' W 122°17'1 2.8
2017-Apr-16 19:30N 37°48' W 122°19'1 2.3
2017-Apr-16 19:00N 37°48' W 122°20'1 1.6
2017-Apr-16 18:30N 37°48' W 122°21'0 0.5
2017-Apr-16 18:00N 37°48' W 122°21'0 1.0
2017-Apr-16 17:30N 37°48' W 122°21'3 0.2
2017-Apr-16 00:06N 37°48' W 122°17'0 1.3
2017-Apr-15 23:59N 37°48' W 122°17'2 4.5
2017-Apr-15 23:29N 37°48' W 122°19'1 1.9
2017-Apr-15 23:00N 37°48' W 122°21'1 1.2
2017-Apr-15 22:30N 37°47' W 122°21'0 0.5
2017-Apr-15 22:00N 37°47' W 122°21'2 3.5
2017-Apr-15 21:30N 37°48' W 122°19'  
Track history (hours):
 
Tides and Currents Weather Stations Pressure Air Temp Water Temp Dewpoint Dewpoint Depression Visibility Wind Speed Wind Dir Waves Ship Positions

Lady Washington (United States)

Ship's website: http://www.historicalseaport.org/LadyWashington.htm

Owner: GRAYS HARBOR HISTORICAL SEAPORT AUTHORIT, ABERDEEN, WA. More information available from US FCC via Universal Licensing System and Coast Guard Vessel Documentation Center.

Last reported at 2017-Apr-25 16:39 UTC. Time now 2017-Apr-26 15:42 UTC.
Position N 38°25' W 123°28'.

Length 37 m.

Type: Sailing vessel. MMSI: 366945360.

Date/timePositionNaut miles runAvg speedWind from/ knotsBaromVisibWave heightAir tempDewpointWater temp
2017-Apr-25 16:39N 38°25' W 123°28'1 5.6
2017-Apr-25 16:30N 38°24' W 123°27'3 5.6
2017-Apr-25 15:58N 38°22' W 123°26'2 5.2
2017-Apr-25 15:30N 38°20' W 123°24'3 5.1
2017-Apr-25 15:00N 38°18' W 123°21'5 5.1
2017-Apr-25 13:59N 38°14' W 123°18'2 5.0
2017-Apr-25 13:30N 38°12' W 123°16'3 5.0
2017-Apr-25 13:00N 38°10' W 123°15'3 4.7
2017-Apr-25 12:16N 38°07' W 123°12'1 4.3
2017-Apr-25 12:00N 38°06' W 123°12'9 4.2
2017-Apr-25 09:57N 37°58' W 123°07'3 5.0
2017-Apr-25 09:25N 37°57' W 123°04'4 5.1
2017-Apr-25 08:32N 37°56' W 122°59'0 4.8
2017-Apr-25 08:30N 37°56' W 122°58'24 3.9
2017-Apr-25 02:26N 37°49' W 122°30'2 5.6
2017-Apr-25 02:00N 37°49' W 122°27'3 6.3
2017-Apr-25 01:29N 37°48' W 122°23'3 5.8
2017-Apr-25 01:00N 37°48' W 122°20'2 0.9
2017-Apr-24 22:18N 37°48' W 122°17'0 0.0
2017-Apr-24 22:00N 37°48' W 122°17'0 0.0
2017-Apr-24 21:24N 37°48' W 122°17'0 0.0
2017-Apr-24 20:54N 37°48' W 122°17'0 0.0
2017-Apr-24 02:48N 37°48' W 122°17'0 0.0
2017-Apr-24 02:30N 37°48' W 122°17'0 0.0
2017-Apr-24 01:24N 37°48' W 122°17'0 0.0
2017-Apr-24 00:48N 37°48' W 122°17'0 0.0
2017-Apr-24 00:30N 37°48' W 122°17'0 0.1
2017-Apr-23 23:44N 37°48' W 122°17'0 1.8
2017-Apr-23 23:29N 37°47' W 122°16'1 1.3
2017-Apr-23 23:00N 37°48' W 122°17'4 7.9
2017-Apr-23 22:30N 37°48' W 122°22'3 5.4
2017-Apr-23 21:59N 37°49' W 122°25'2 3.9
2017-Apr-23 21:29N 37°48' W 122°23'3 6.0
2017-Apr-23 21:00N 37°48' W 122°19'2 2.5
2017-Apr-23 20:10N 37°48' W 122°17'0 0.0
2017-Apr-23 19:52N 37°48' W 122°17'1 3.9
2017-Apr-23 19:30N 37°48' W 122°19'4 7.2
2017-Apr-23 18:58N 37°49' W 122°23'3 6.7
2017-Apr-23 18:29N 37°50' W 122°27'1 2.7
2017-Apr-23 18:00N 37°51' W 122°28'1 2.5
2017-Apr-23 17:30N 37°51' W 122°27'3 6.6
2017-Apr-23 17:00N 37°49' W 122°23'3 6.5
2017-Apr-23 16:30N 37°48' W 122°19'2 0.1
2017-Apr-23 00:20N 37°48' W 122°17'0 0.4
2017-Apr-22 23:54N 37°48' W 122°17'2 4.0
2017-Apr-22 23:30N 37°48' W 122°19'1 2.5
2017-Apr-22 23:00N 37°47' W 122°20'0 0.5
2017-Apr-22 22:30N 37°48' W 122°21'0 0.6
2017-Apr-22 21:59N 37°48' W 122°21'1 3.0
2017-Apr-22 21:30N 37°48' W 122°19'2 0.4
2017-Apr-22 17:19N 37°48' W 122°17'0 0.0
2017-Apr-22 16:04N 37°48' W 122°17'0 0.0
2017-Apr-21 23:59N 37°48' W 122°17'3 5.6
2017-Apr-21 23:30N 37°48' W 122°20'3 5.0
2017-Apr-21 22:59N 37°47' W 122°23'0 0.6
2017-Apr-21 22:29N 37°47' W 122°23'1 1.5
2017-Apr-21 21:51N 37°47' W 122°22'0 1.3
2017-Apr-21 21:30N 37°48' W 122°21'1 1.9
2017-Apr-21 20:56N 37°47' W 122°22'1 2.0
2017-Apr-21 20:30N 37°47' W 122°21'1 1.1
2017-Apr-21 20:00N 37°47' W 122°22'1 0.9
2017-Apr-21 18:56N 37°47' W 122°23'1 2.2
2017-Apr-21 18:30N 37°48' W 122°22'1 1.0
2017-Apr-21 17:52N 37°47' W 122°21'0 0.9
2017-Apr-21 17:30N 37°47' W 122°21'0 0.1
2017-Apr-21 17:00N 37°47' W 122°21'2 1.3
2017-Apr-21 15:44N 37°47' W 122°23'0 1.1
2017-Apr-21 15:30N 37°47' W 122°23'2 3.9
2017-Apr-21 15:00N 37°48' W 122°21'3 1.6
2017-Apr-21 12:55N 37°48' W 122°17'0 0.0
2017-Apr-21 10:22N 37°48' W 122°17'0 0.0
2017-Apr-20 22:21N 37°48' W 122°17'0 0.4
2017-Apr-20 21:59N 37°48' W 122°17'1 2.9
2017-Apr-20 21:30N 37°48' W 122°19'2 3.2
2017-Apr-20 21:00N 37°47' W 122°21'0 0.6
2017-Apr-20 20:24N 37°48' W 122°21'1 2.3
2017-Apr-20 19:59N 37°48' W 122°20'2 2.8
2017-Apr-20 19:05N 37°48' W 122°17'0 1.4
2017-Apr-20 19:00N 37°48' W 122°17'0 0.1
2017-Apr-20 17:57N 37°48' W 122°17'0 0.0
2017-Apr-20 17:27N 37°48' W 122°17'0 0.2
2017-Apr-20 17:00N 37°47' W 122°17'0 0.0
2017-Apr-19 14:52N 37°48' W 122°17'0 0.0
2017-Apr-19 14:27N 37°48' W 122°17'0 0.0
2017-Apr-19 13:21N 37°48' W 122°17'0 0.0
2017-Apr-18 19:24N 37°48' W 122°17'0 0.0
2017-Apr-18 19:00N 37°48' W 122°17'0 0.0
2017-Apr-18 11:00N 37°48' W 122°17'0 0.0
2017-Apr-18 05:24N 37°48' W 122°17'0 0.0
2017-Apr-18 04:54N 37°48' W 122°17'0 0.0
2017-Apr-18 04:24N 37°48' W 122°17'0 0.0
2017-Apr-18 03:18N 37°48' W 122°17'0 0.0
2017-Apr-18 03:00N 37°48' W 122°17'0 0.0
2017-Apr-18 02:18N 37°48' W 122°17'0 0.0
2017-Apr-18 02:00N 37°48' W 122°17'0 0.0
2017-Apr-17 06:11N 37°48' W 122°17'0 0.0
2017-Apr-17 05:59N 37°48' W 122°17'0 0.0
2017-Apr-17 05:29N 37°48' W 122°17'0 0.0
2017-Apr-17 04:53N 37°48' W 122°17'0 0.0
2017-Apr-17 03:53N 37°48' W 122°17'0 0.0
2017-Apr-17 03:20N 37°48' W 122°17'0 0.0
2017-Apr-17 02:59N 37°48' W 122°17'0 0.0
2017-Apr-17 02:29N 37°48' W 122°17'0 0.0
2017-Apr-17 01:53N 37°48' W 122°17'0 0.0
2017-Apr-17 01:29N 37°48' W 122°17'0 0.0
2017-Apr-17 00:59N 37°48' W 122°17'0 0.0
2017-Apr-17 00:23N 37°48' W 122°17'0 0.0
2017-Apr-16 23:59N 37°48' W 122°17'1 1.4
2017-Apr-16 23:30N 37°48' W 122°18'3 5.2
2017-Apr-16 23:00N 37°48' W 122°21'0 0.4
2017-Apr-16 22:30N 37°47' W 122°21'1 1.5
2017-Apr-16 22:00N 37°47' W 122°21'2 3.8
2017-Apr-16 21:30N 37°48' W 122°20'2 1.1
2017-Apr-16 19:52N 37°48' W 122°17'1 2.8
2017-Apr-16 19:30N 37°48' W 122°19'1 2.3
2017-Apr-16 19:00N 37°48' W 122°20'1 1.6
2017-Apr-16 18:30N 37°48' W 122°21'0 0.5
2017-Apr-16 18:00N 37°48' W 122°21'0 1.0
2017-Apr-16 17:30N 37°48' W 122°21'3 0.2
2017-Apr-16 00:06N 37°48' W 122°17'0 1.3
2017-Apr-15 23:59N 37°48' W 122°17'2 4.5
2017-Apr-15 23:29N 37°48' W 122°19'1 1.9
2017-Apr-15 23:00N 37°48' W 122°21'1 1.2
2017-Apr-15 22:30N 37°47' W 122°21'0 0.5
2017-Apr-15 22:00N 37°47' W 122°21'2 3.5
2017-Apr-15 21:30N 37°48' W 122°19'  

Dump ship's entire track history